sensor_id;sensor_type;location;lat;lon;timestamp;P1;durP1;ratioP1;P2;durP2;ratioP2
79076;SDS011;68477;42.698;23.342;2023-11-21T00:00:27;36.35;;;16.25;;
79076;SDS011;68477;42.698;23.342;2023-11-21T00:02:53;33.33;;;15.68;;
79076;SDS011;68477;42.698;23.342;2023-11-21T00:05:19;35.05;;;16.80;;
79076;SDS011;68477;42.698;23.342;2023-11-21T00:07:44;32.10;;;16.27;;
79076;SDS011;68477;42.698;23.342;2023-11-21T00:10:10;39.38;;;17.38;;
79076;SDS011;68477;42.698;23.342;2023-11-21T00:12:39;44.55;;;20.83;;
79076;SDS011;68477;42.698;23.342;2023-11-21T00:15:07;38.15;;;19.27;;
79076;SDS011;68477;42.698;23.342;2023-11-21T00:17:38;37.65;;;18.30;;
79076;SDS011;68477;42.698;23.342;2023-11-21T00:20:05;44.65;;;21.88;;
79076;SDS011;68477;42.698;23.342;2023-11-21T00:22:35;45.80;;;22.77;;
79076;SDS011;68477;42.698;23.342;2023-11-21T00:25:01;49.38;;;23.13;;
79076;SDS011;68477;42.698;23.342;2023-11-21T00:27:28;50.30;;;23.13;;
79076;SDS011;68477;42.698;23.342;2023-11-21T00:29:54;52.05;;;24.08;;
79076;SDS011;68477;42.698;23.342;2023-11-21T00:32:19;53.88;;;25.83;;
79076;SDS011;68477;42.698;23.342;2023-11-21T00:34:45;47.67;;;24.52;;
79076;SDS011;68477;42.698;23.342;2023-11-21T00:37:10;52.25;;;22.75;;
79076;SDS011;68477;42.698;23.342;2023-11-21T00:39:36;52.35;;;24.80;;
79076;SDS011;68477;42.698;23.342;2023-11-21T00:42:02;46.35;;;23.75;;
79076;SDS011;68477;42.698;23.342;2023-11-21T00:44:29;45.65;;;24.65;;
79076;SDS011;68477;42.698;23.342;2023-11-21T00:46:55;46.58;;;23.00;;
79076;SDS011;68477;42.698;23.342;2023-11-21T00:49:21;50.75;;;23.52;;
79076;SDS011;68477;42.698;23.342;2023-11-21T00:51:46;48.53;;;22.20;;
79076;SDS011;68477;42.698;23.342;2023-11-21T00:54:12;46.00;;;23.15;;
79076;SDS011;68477;42.698;23.342;2023-11-21T00:56:37;47.63;;;23.13;;
79076;SDS011;68477;42.698;23.342;2023-11-21T00:59:03;46.83;;;24.33;;
79076;SDS011;68477;42.698;23.342;2023-11-21T01:01:30;44.00;;;22.00;;
79076;SDS011;68477;42.698;23.342;2023-11-21T01:03:55;47.40;;;22.65;;
79076;SDS011;68477;42.698;23.342;2023-11-21T01:06:21;49.30;;;22.88;;
79076;SDS011;68477;42.698;23.342;2023-11-21T01:08:46;48.72;;;22.27;;
79076;SDS011;68477;42.698;23.342;2023-11-21T01:11:12;45.13;;;23.00;;
79076;SDS011;68477;42.698;23.342;2023-11-21T01:13:38;49.53;;;22.35;;
79076;SDS011;68477;42.698;23.342;2023-11-21T01:16:04;45.78;;;22.00;;
79076;SDS011;68477;42.698;23.342;2023-11-21T01:18:31;43.90;;;21.20;;
79076;SDS011;68477;42.698;23.342;2023-11-21T01:20:57;50.53;;;22.60;;
79076;SDS011;68477;42.698;23.342;2023-11-21T01:23:23;42.88;;;20.25;;
79076;SDS011;68477;42.698;23.342;2023-11-21T01:25:48;39.80;;;21.13;;
79076;SDS011;68477;42.698;23.342;2023-11-21T01:28:14;40.63;;;19.98;;
79076;SDS011;68477;42.698;23.342;2023-11-21T01:30:39;45.20;;;20.27;;
79076;SDS011;68477;42.698;23.342;2023-11-21T01:33:06;44.13;;;20.77;;
79076;SDS011;68477;42.698;23.342;2023-11-21T01:35:33;39.97;;;21.38;;
79076;SDS011;68477;42.698;23.342;2023-11-21T01:37:59;44.92;;;21.80;;
79076;SDS011;68477;42.698;23.342;2023-11-21T01:40:24;42.03;;;20.88;;
79076;SDS011;68477;42.698;23.342;2023-11-21T01:42:50;41.90;;;20.45;;
79076;SDS011;68477;42.698;23.342;2023-11-21T01:45:15;44.60;;;20.63;;
79076;SDS011;68477;42.698;23.342;2023-11-21T01:47:41;37.17;;;21.08;;
79076;SDS011;68477;42.698;23.342;2023-11-21T01:50:09;41.22;;;21.45;;
79076;SDS011;68477;42.698;23.342;2023-11-21T01:52:42;39.65;;;19.88;;
79076;SDS011;68477;42.698;23.342;2023-11-21T01:55:09;44.47;;;22.23;;
79076;SDS011;68477;42.698;23.342;2023-11-21T01:57:37;45.72;;;21.85;;
79076;SDS011;68477;42.698;23.342;2023-11-21T02:00:03;39.97;;;22.10;;
79076;SDS011;68477;42.698;23.342;2023-11-21T02:02:43;41.05;;;20.42;;
79076;SDS011;68477;42.698;23.342;2023-11-21T02:05:10;39.70;;;20.02;;
79076;SDS011;68477;42.698;23.342;2023-11-21T02:07:38;46.47;;;21.60;;
79076;SDS011;68477;42.698;23.342;2023-11-21T02:10:07;40.03;;;18.92;;
79076;SDS011;68477;42.698;23.342;2023-11-21T02:12:34;41.08;;;19.70;;
79076;SDS011;68477;42.698;23.342;2023-11-21T02:15:03;38.00;;;17.38;;
79076;SDS011;68477;42.698;23.342;2023-11-21T02:17:39;34.28;;;17.38;;
79076;SDS011;68477;42.698;23.342;2023-11-21T02:20:09;32.92;;;15.82;;
79076;SDS011;68477;42.698;23.342;2023-11-21T02:22:40;30.13;;;15.00;;
79076;SDS011;68477;42.698;23.342;2023-11-21T02:25:07;28.52;;;13.88;;
79076;SDS011;68477;42.698;23.342;2023-11-21T02:27:33;25.88;;;13.57;;
79076;SDS011;68477;42.698;23.342;2023-11-21T02:29:59;27.27;;;13.48;;
79076;SDS011;68477;42.698;23.342;2023-11-21T02:32:26;29.92;;;14.43;;
79076;SDS011;68477;42.698;23.342;2023-11-21T02:34:52;25.45;;;12.18;;
79076;SDS011;68477;42.698;23.342;2023-11-21T02:37:20;27.15;;;13.43;;
79076;SDS011;68477;42.698;23.342;2023-11-21T02:39:46;29.27;;;13.32;;
79076;SDS011;68477;42.698;23.342;2023-11-21T02:42:11;24.70;;;12.93;;
79076;SDS011;68477;42.698;23.342;2023-11-21T02:44:37;24.92;;;11.73;;
79076;SDS011;68477;42.698;23.342;2023-11-21T02:47:02;23.08;;;12.15;;
79076;SDS011;68477;42.698;23.342;2023-11-21T02:49:29;25.13;;;12.35;;
79076;SDS011;68477;42.698;23.342;2023-11-21T02:51:54;20.25;;;11.27;;
79076;SDS011;68477;42.698;23.342;2023-11-21T02:54:20;19.13;;;10.38;;
79076;SDS011;68477;42.698;23.342;2023-11-21T02:56:47;20.80;;;9.88;;
79076;SDS011;68477;42.698;23.342;2023-11-21T02:59:14;19.45;;;10.13;;
79076;SDS011;68477;42.698;23.342;2023-11-21T03:01:40;22.38;;;11.32;;
79076;SDS011;68477;42.698;23.342;2023-11-21T03:04:06;20.45;;;10.80;;
79076;SDS011;68477;42.698;23.342;2023-11-21T03:06:32;27.27;;;12.38;;
79076;SDS011;68477;42.698;23.342;2023-11-21T03:08:57;22.35;;;12.18;;
79076;SDS011;68477;42.698;23.342;2023-11-21T03:11:22;21.85;;;11.75;;
79076;SDS011;68477;42.698;23.342;2023-11-21T03:13:48;22.55;;;12.13;;
79076;SDS011;68477;42.698;23.342;2023-11-21T03:16:14;19.92;;;11.13;;
79076;SDS011;68477;42.698;23.342;2023-11-21T03:18:40;24.60;;;12.27;;
79076;SDS011;68477;42.698;23.342;2023-11-21T03:21:06;21.00;;;11.73;;
79076;SDS011;68477;42.698;23.342;2023-11-21T03:23:35;30.02;;;13.10;;
79076;SDS011;68477;42.698;23.342;2023-11-21T03:26:01;18.80;;;10.90;;
79076;SDS011;68477;42.698;23.342;2023-11-21T03:28:27;24.67;;;12.18;;
79076;SDS011;68477;42.698;23.342;2023-11-21T03:30:53;21.23;;;11.40;;
79076;SDS011;68477;42.698;23.342;2023-11-21T03:33:19;19.75;;;11.02;;
79076;SDS011;68477;42.698;23.342;2023-11-21T03:35:45;22.73;;;11.18;;
79076;SDS011;68477;42.698;23.342;2023-11-21T03:38:11;23.55;;;11.82;;
79076;SDS011;68477;42.698;23.342;2023-11-21T03:40:37;22.13;;;11.38;;
79076;SDS011;68477;42.698;23.342;2023-11-21T03:43:05;21.15;;;11.48;;
79076;SDS011;68477;42.698;23.342;2023-11-21T03:45:31;21.63;;;11.13;;
79076;SDS011;68477;42.698;23.342;2023-11-21T03:47:58;22.73;;;11.48;;
79076;SDS011;68477;42.698;23.342;2023-11-21T03:50:25;22.02;;;11.23;;
79076;SDS011;68477;42.698;23.342;2023-11-21T03:52:51;21.10;;;11.70;;
79076;SDS011;68477;42.698;23.342;2023-11-21T03:55:16;26.13;;;12.73;;
79076;SDS011;68477;42.698;23.342;2023-11-21T03:57:42;22.52;;;11.65;;
79076;SDS011;68477;42.698;23.342;2023-11-21T04:00:07;18.02;;;10.68;;
79076;SDS011;68477;42.698;23.342;2023-11-21T04:02:34;23.35;;;11.05;;
79076;SDS011;68477;42.698;23.342;2023-11-21T04:05:00;22.90;;;11.68;;
79076;SDS011;68477;42.698;23.342;2023-11-21T04:07:25;18.63;;;10.02;;
79076;SDS011;68477;42.698;23.342;2023-11-21T04:09:50;18.60;;;10.15;;
79076;SDS011;68477;42.698;23.342;2023-11-21T04:12:16;23.27;;;10.73;;
79076;SDS011;68477;42.698;23.342;2023-11-21T04:14:42;25.20;;;11.70;;
79076;SDS011;68477;42.698;23.342;2023-11-21T04:17:07;29.30;;;12.68;;
79076;SDS011;68477;42.698;23.342;2023-11-21T04:19:32;24.95;;;11.55;;
79076;SDS011;68477;42.698;23.342;2023-11-21T04:21:58;22.38;;;12.00;;
79076;SDS011;68477;42.698;23.342;2023-11-21T04:24:23;22.10;;;11.75;;
79076;SDS011;68477;42.698;23.342;2023-11-21T04:26:49;24.13;;;13.23;;
79076;SDS011;68477;42.698;23.342;2023-11-21T04:29:14;23.85;;;11.88;;
79076;SDS011;68477;42.698;23.342;2023-11-21T04:31:40;25.70;;;12.95;;
79076;SDS011;68477;42.698;23.342;2023-11-21T04:34:06;26.58;;;13.80;;
79076;SDS011;68477;42.698;23.342;2023-11-21T04:36:32;28.10;;;14.50;;
79076;SDS011;68477;42.698;23.342;2023-11-21T04:38:57;27.05;;;13.68;;
79076;SDS011;68477;42.698;23.342;2023-11-21T04:41:23;24.88;;;14.10;;
79076;SDS011;68477;42.698;23.342;2023-11-21T04:43:48;27.02;;;14.30;;
79076;SDS011;68477;42.698;23.342;2023-11-21T04:46:14;27.88;;;13.13;;
79076;SDS011;68477;42.698;23.342;2023-11-21T04:48:40;22.73;;;13.00;;
79076;SDS011;68477;42.698;23.342;2023-11-21T04:51:05;28.27;;;13.75;;
79076;SDS011;68477;42.698;23.342;2023-11-21T04:53:32;30.45;;;14.63;;
79076;SDS011;68477;42.698;23.342;2023-11-21T04:55:57;26.45;;;13.80;;
79076;SDS011;68477;42.698;23.342;2023-11-21T04:58:23;28.55;;;14.98;;
79076;SDS011;68477;42.698;23.342;2023-11-21T05:00:49;25.77;;;13.88;;
79076;SDS011;68477;42.698;23.342;2023-11-21T05:03:15;29.02;;;14.45;;
79076;SDS011;68477;42.698;23.342;2023-11-21T05:05:40;25.52;;;14.38;;
79076;SDS011;68477;42.698;23.342;2023-11-21T05:08:07;23.50;;;13.77;;
79076;SDS011;68477;42.698;23.342;2023-11-21T05:10:33;35.65;;;16.50;;
79076;SDS011;68477;42.698;23.342;2023-11-21T05:12:59;27.38;;;14.20;;
79076;SDS011;68477;42.698;23.342;2023-11-21T05:15:24;25.63;;;14.80;;
79076;SDS011;68477;42.698;23.342;2023-11-21T05:17:50;30.60;;;14.95;;
79076;SDS011;68477;42.698;23.342;2023-11-21T05:20:17;33.30;;;16.08;;
79076;SDS011;68477;42.698;23.342;2023-11-21T05:22:46;26.95;;;15.85;;
79076;SDS011;68477;42.698;23.342;2023-11-21T05:25:13;27.33;;;15.50;;
79076;SDS011;68477;42.698;23.342;2023-11-21T05:27:39;30.33;;;15.90;;
79076;SDS011;68477;42.698;23.342;2023-11-21T05:30:05;28.33;;;16.10;;
79076;SDS011;68477;42.698;23.342;2023-11-21T05:32:38;26.38;;;14.43;;
79076;SDS011;68477;42.698;23.342;2023-11-21T05:35:04;31.35;;;14.88;;
79076;SDS011;68477;42.698;23.342;2023-11-21T05:37:34;32.15;;;16.50;;
79076;SDS011;68477;42.698;23.342;2023-11-21T05:40:01;25.75;;;15.05;;
79076;SDS011;68477;42.698;23.342;2023-11-21T05:42:31;25.77;;;14.32;;
79076;SDS011;68477;42.698;23.342;2023-11-21T05:44:57;29.20;;;14.82;;
79076;SDS011;68477;42.698;23.342;2023-11-21T05:47:28;31.92;;;14.88;;
79076;SDS011;68477;42.698;23.342;2023-11-21T05:49:53;33.65;;;15.20;;
79076;SDS011;68477;42.698;23.342;2023-11-21T05:52:19;39.63;;;17.92;;
79076;SDS011;68477;42.698;23.342;2023-11-21T05:54:45;36.13;;;18.88;;
79076;SDS011;68477;42.698;23.342;2023-11-21T05:57:11;41.65;;;20.15;;
79076;SDS011;68477;42.698;23.342;2023-11-21T05:59:36;48.25;;;23.52;;
79076;SDS011;68477;42.698;23.342;2023-11-21T06:02:02;53.92;;;24.77;;
79076;SDS011;68477;42.698;23.342;2023-11-21T06:04:27;43.83;;;22.88;;
79076;SDS011;68477;42.698;23.342;2023-11-21T06:06:53;43.92;;;22.58;;
79076;SDS011;68477;42.698;23.342;2023-11-21T06:09:19;52.58;;;22.13;;
79076;SDS011;68477;42.698;23.342;2023-11-21T06:11:44;45.47;;;20.98;;
79076;SDS011;68477;42.698;23.342;2023-11-21T06:14:10;52.92;;;21.83;;
79076;SDS011;68477;42.698;23.342;2023-11-21T06:16:36;45.38;;;21.85;;
79076;SDS011;68477;42.698;23.342;2023-11-21T06:19:01;48.65;;;21.25;;
79076;SDS011;68477;42.698;23.342;2023-11-21T06:21:27;40.05;;;20.45;;
79076;SDS011;68477;42.698;23.342;2023-11-21T06:23:52;43.85;;;22.85;;
79076;SDS011;68477;42.698;23.342;2023-11-21T06:26:18;52.60;;;24.75;;
79076;SDS011;68477;42.698;23.342;2023-11-21T06:28:45;43.13;;;23.73;;
79076;SDS011;68477;42.698;23.342;2023-11-21T06:31:10;43.72;;;21.85;;
79076;SDS011;68477;42.698;23.342;2023-11-21T06:33:36;44.95;;;22.00;;
79076;SDS011;68477;42.698;23.342;2023-11-21T06:36:01;48.90;;;22.77;;
79076;SDS011;68477;42.698;23.342;2023-11-21T06:38:27;42.40;;;21.70;;
79076;SDS011;68477;42.698;23.342;2023-11-21T06:40:55;56.30;;;23.67;;
79076;SDS011;68477;42.698;23.342;2023-11-21T06:43:21;36.47;;;21.92;;
79076;SDS011;68477;42.698;23.342;2023-11-21T06:45:47;46.38;;;21.42;;
79076;SDS011;68477;42.698;23.342;2023-11-21T06:48:13;46.30;;;24.73;;
79076;SDS011;68477;42.698;23.342;2023-11-21T06:50:39;45.42;;;23.25;;
79076;SDS011;68477;42.698;23.342;2023-11-21T06:53:04;50.05;;;25.38;;
79076;SDS011;68477;42.698;23.342;2023-11-21T06:55:32;42.92;;;23.05;;
79076;SDS011;68477;42.698;23.342;2023-11-21T06:57:58;41.83;;;23.13;;
79076;SDS011;68477;42.698;23.342;2023-11-21T07:00:25;43.72;;;20.73;;
79076;SDS011;68477;42.698;23.342;2023-11-21T07:02:52;41.85;;;21.77;;
79076;SDS011;68477;42.698;23.342;2023-11-21T07:05:18;58.45;;;22.63;;
79076;SDS011;68477;42.698;23.342;2023-11-21T07:07:46;43.13;;;22.42;;
79076;SDS011;68477;42.698;23.342;2023-11-21T07:10:11;42.20;;;22.45;;
79076;SDS011;68477;42.698;23.342;2023-11-21T07:12:37;40.47;;;20.80;;
79076;SDS011;68477;42.698;23.342;2023-11-21T07:15:03;42.17;;;21.20;;
79076;SDS011;68477;42.698;23.342;2023-11-21T07:17:32;44.35;;;22.75;;
79076;SDS011;68477;42.698;23.342;2023-11-21T07:19:57;49.80;;;25.75;;
79076;SDS011;68477;42.698;23.342;2023-11-21T07:22:23;46.45;;;23.02;;
79076;SDS011;68477;42.698;23.342;2023-11-21T07:24:49;45.25;;;23.30;;
79076;SDS011;68477;42.698;23.342;2023-11-21T07:27:17;45.42;;;24.65;;
79076;SDS011;68477;42.698;23.342;2023-11-21T07:29:43;55.60;;;23.52;;
79076;SDS011;68477;42.698;23.342;2023-11-21T07:32:09;42.78;;;22.25;;
79076;SDS011;68477;42.698;23.342;2023-11-21T07:34:35;44.67;;;23.27;;
79076;SDS011;68477;42.698;23.342;2023-11-21T07:37:01;46.40;;;21.35;;
79076;SDS011;68477;42.698;23.342;2023-11-21T07:39:27;48.20;;;25.60;;
79076;SDS011;68477;42.698;23.342;2023-11-21T07:41:53;49.25;;;25.27;;
79076;SDS011;68477;42.698;23.342;2023-11-21T07:44:19;55.15;;;25.38;;
79076;SDS011;68477;42.698;23.342;2023-11-21T07:46:45;48.47;;;24.02;;
79076;SDS011;68477;42.698;23.342;2023-11-21T07:49:11;57.13;;;26.58;;
79076;SDS011;68477;42.698;23.342;2023-11-21T07:51:43;53.30;;;27.58;;
79076;SDS011;68477;42.698;23.342;2023-11-21T07:54:08;60.17;;;29.10;;
79076;SDS011;68477;42.698;23.342;2023-11-21T07:56:35;54.10;;;27.45;;
79076;SDS011;68477;42.698;23.342;2023-11-21T07:59:00;71.50;;;33.33;;
79076;SDS011;68477;42.698;23.342;2023-11-21T08:01:25;55.92;;;26.02;;
79076;SDS011;68477;42.698;23.342;2023-11-21T08:03:53;49.10;;;26.20;;
79076;SDS011;68477;42.698;23.342;2023-11-21T08:06:22;43.88;;;23.38;;
79076;SDS011;68477;42.698;23.342;2023-11-21T08:08:50;47.80;;;25.90;;
79076;SDS011;68477;42.698;23.342;2023-11-21T08:11:16;59.88;;;29.52;;
79076;SDS011;68477;42.698;23.342;2023-11-21T08:13:41;49.25;;;24.98;;
79076;SDS011;68477;42.698;23.342;2023-11-21T08:16:07;46.03;;;24.00;;
79076;SDS011;68477;42.698;23.342;2023-11-21T08:18:34;43.88;;;25.45;;
79076;SDS011;68477;42.698;23.342;2023-11-21T08:21:00;47.45;;;25.20;;
79076;SDS011;68477;42.698;23.342;2023-11-21T08:23:27;41.78;;;21.98;;
79076;SDS011;68477;42.698;23.342;2023-11-21T08:25:53;39.85;;;21.80;;
79076;SDS011;68477;42.698;23.342;2023-11-21T08:28:19;38.45;;;22.42;;
79076;SDS011;68477;42.698;23.342;2023-11-21T08:30:48;40.65;;;22.42;;
79076;SDS011;68477;42.698;23.342;2023-11-21T08:33:13;41.72;;;21.40;;
79076;SDS011;68477;42.698;23.342;2023-11-21T08:35:39;52.60;;;25.38;;
79076;SDS011;68477;42.698;23.342;2023-11-21T08:38:04;54.47;;;25.25;;
79076;SDS011;68477;42.698;23.342;2023-11-21T08:40:30;48.35;;;24.77;;
79076;SDS011;68477;42.698;23.342;2023-11-21T08:42:56;42.47;;;22.02;;
79076;SDS011;68477;42.698;23.342;2023-11-21T08:45:23;45.80;;;22.45;;
79076;SDS011;68477;42.698;23.342;2023-11-21T08:47:50;40.92;;;21.02;;
79076;SDS011;68477;42.698;23.342;2023-11-21T08:50:16;37.28;;;20.38;;
79076;SDS011;68477;42.698;23.342;2023-11-21T08:52:41;32.38;;;19.20;;
79076;SDS011;68477;42.698;23.342;2023-11-21T08:55:08;35.95;;;19.40;;
79076;SDS011;68477;42.698;23.342;2023-11-21T08:57:37;37.47;;;20.80;;
79076;SDS011;68477;42.698;23.342;2023-11-21T09:00:06;44.58;;;20.50;;
79076;SDS011;68477;42.698;23.342;2023-11-21T09:02:39;39.90;;;20.33;;
79076;SDS011;68477;42.698;23.342;2023-11-21T09:05:07;35.40;;;21.10;;
79076;SDS011;68477;42.698;23.342;2023-11-21T09:07:34;50.70;;;24.98;;
79076;SDS011;68477;42.698;23.342;2023-11-21T09:10:00;43.83;;;21.88;;
79076;SDS011;68477;42.698;23.342;2023-11-21T09:12:26;47.08;;;22.65;;
79076;SDS011;68477;42.698;23.342;2023-11-21T09:14:51;43.28;;;24.00;;
79076;SDS011;68477;42.698;23.342;2023-11-21T09:17:16;49.08;;;25.52;;
79076;SDS011;68477;42.698;23.342;2023-11-21T09:19:42;48.35;;;22.38;;
79076;SDS011;68477;42.698;23.342;2023-11-21T09:22:15;46.13;;;26.65;;
79076;SDS011;68477;42.698;23.342;2023-11-21T09:24:41;50.22;;;26.35;;
79076;SDS011;68477;42.698;23.342;2023-11-21T09:27:07;51.05;;;25.90;;
79076;SDS011;68477;42.698;23.342;2023-11-21T09:29:33;57.80;;;26.80;;
79076;SDS011;68477;42.698;23.342;2023-11-21T09:31:58;42.95;;;22.83;;
79076;SDS011;68477;42.698;23.342;2023-11-21T09:34:26;44.05;;;22.42;;
79076;SDS011;68477;42.698;23.342;2023-11-21T09:36:52;45.55;;;25.95;;
79076;SDS011;68477;42.698;23.342;2023-11-21T09:39:18;43.03;;;24.13;;
79076;SDS011;68477;42.698;23.342;2023-11-21T09:41:49;44.95;;;24.38;;
79076;SDS011;68477;42.698;23.342;2023-11-21T09:44:25;40.95;;;23.35;;
79076;SDS011;68477;42.698;23.342;2023-11-21T09:46:59;35.58;;;22.30;;
79076;SDS011;68477;42.698;23.342;2023-11-21T09:49:24;36.40;;;21.80;;
79076;SDS011;68477;42.698;23.342;2023-11-21T09:51:53;36.45;;;22.20;;
79076;SDS011;68477;42.698;23.342;2023-11-21T09:54:21;51.78;;;24.88;;
79076;SDS011;68477;42.698;23.342;2023-11-21T09:56:47;47.38;;;25.10;;
79076;SDS011;68477;42.698;23.342;2023-11-21T09:59:15;53.97;;;26.00;;
79076;SDS011;68477;42.698;23.342;2023-11-21T10:01:41;39.10;;;22.88;;
79076;SDS011;68477;42.698;23.342;2023-11-21T10:04:10;45.05;;;24.80;;
79076;SDS011;68477;42.698;23.342;2023-11-21T10:06:41;37.50;;;21.58;;
79076;SDS011;68477;42.698;23.342;2023-11-21T10:09:09;38.33;;;21.88;;
79076;SDS011;68477;42.698;23.342;2023-11-21T10:11:43;39.53;;;21.52;;
79076;SDS011;68477;42.698;23.342;2023-11-21T10:14:12;40.08;;;20.65;;
79076;SDS011;68477;42.698;23.342;2023-11-21T10:16:39;40.22;;;22.95;;
79076;SDS011;68477;42.698;23.342;2023-11-21T10:19:06;38.15;;;21.20;;
79076;SDS011;68477;42.698;23.342;2023-11-21T10:21:35;41.67;;;20.88;;
79076;SDS011;68477;42.698;23.342;2023-11-21T10:24:01;43.85;;;22.33;;
79076;SDS011;68477;42.698;23.342;2023-11-21T10:26:28;39.08;;;20.25;;
79076;SDS011;68477;42.698;23.342;2023-11-21T10:29:00;37.47;;;20.85;;
79076;SDS011;68477;42.698;23.342;2023-11-21T10:31:29;35.83;;;20.58;;
79076;SDS011;68477;42.698;23.342;2023-11-21T10:33:59;42.35;;;20.48;;
79076;SDS011;68477;42.698;23.342;2023-11-21T10:36:45;42.35;;;21.25;;
79076;SDS011;68477;42.698;23.342;2023-11-21T10:39:14;37.67;;;19.75;;
79076;SDS011;68477;42.698;23.342;2023-11-21T10:41:45;33.17;;;18.90;;
79076;SDS011;68477;42.698;23.342;2023-11-21T10:44:13;41.17;;;20.50;;
79076;SDS011;68477;42.698;23.342;2023-11-21T10:46:45;33.60;;;19.27;;
79076;SDS011;68477;42.698;23.342;2023-11-21T10:49:24;33.30;;;18.48;;
79076;SDS011;68477;42.698;23.342;2023-11-21T10:51:50;35.20;;;18.60;;
79076;SDS011;68477;42.698;23.342;2023-11-21T10:54:21;31.50;;;17.55;;
79076;SDS011;68477;42.698;23.342;2023-11-21T10:56:53;31.58;;;17.15;;
79076;SDS011;68477;42.698;23.342;2023-11-21T10:59:23;30.80;;;17.38;;
79076;SDS011;68477;42.698;23.342;2023-11-21T11:01:53;30.10;;;17.70;;
79076;SDS011;68477;42.698;23.342;2023-11-21T11:04:22;35.72;;;17.98;;
79076;SDS011;68477;42.698;23.342;2023-11-21T11:06:50;30.33;;;17.20;;
79076;SDS011;68477;42.698;23.342;2023-11-21T11:09:21;34.25;;;16.95;;
79076;SDS011;68477;42.698;23.342;2023-11-21T11:11:47;37.80;;;19.20;;
79076;SDS011;68477;42.698;23.342;2023-11-21T11:14:14;34.28;;;18.38;;
79076;SDS011;68477;42.698;23.342;2023-11-21T11:16:40;34.80;;;18.70;;
79076;SDS011;68477;42.698;23.342;2023-11-21T11:19:08;33.08;;;17.65;;
79076;SDS011;68477;42.698;23.342;2023-11-21T11:21:37;30.95;;;17.17;;
79076;SDS011;68477;42.698;23.342;2023-11-21T11:26:56;32.05;;;17.38;;
79076;SDS011;68477;42.698;23.342;2023-11-21T11:37:47;30.25;;;14.95;;
79076;SDS011;68477;42.698;23.342;2023-11-21T11:40:13;27.88;;;15.90;;
79076;SDS011;68477;42.698;23.342;2023-11-21T11:42:54;29.77;;;16.30;;
79076;SDS011;68477;42.698;23.342;2023-11-21T11:45:33;28.33;;;16.88;;
79076;SDS011;68477;42.698;23.342;2023-11-21T11:48:00;35.80;;;17.27;;
79076;SDS011;68477;42.698;23.342;2023-11-21T11:50:33;28.52;;;16.05;;
79076;SDS011;68477;42.698;23.342;2023-11-21T11:53:12;30.80;;;16.48;;
79076;SDS011;68477;42.698;23.342;2023-11-21T11:55:39;33.25;;;19.08;;
79076;SDS011;68477;42.698;23.342;2023-11-21T11:58:05;34.80;;;17.55;;
79076;SDS011;68477;42.698;23.342;2023-11-21T12:02:58;29.13;;;17.42;;
79076;SDS011;68477;42.698;23.342;2023-11-21T12:05:28;32.33;;;17.48;;
79076;SDS011;68477;42.698;23.342;2023-11-21T12:07:59;29.45;;;17.17;;
79076;SDS011;68477;42.698;23.342;2023-11-21T12:10:29;34.72;;;18.50;;
79076;SDS011;68477;42.698;23.342;2023-11-21T12:15:32;31.75;;;18.52;;
79076;SDS011;68477;42.698;23.342;2023-11-21T12:17:58;34.50;;;17.83;;
79076;SDS011;68477;42.698;23.342;2023-11-21T12:20:25;34.65;;;16.65;;
79076;SDS011;68477;42.698;23.342;2023-11-21T12:25:19;26.60;;;15.82;;
79076;SDS011;68477;42.698;23.342;2023-11-21T12:27:46;33.40;;;17.88;;
79076;SDS011;68477;42.698;23.342;2023-11-21T12:30:14;34.15;;;17.38;;
79076;SDS011;68477;42.698;23.342;2023-11-21T12:32:43;35.30;;;19.38;;
79076;SDS011;68477;42.698;23.342;2023-11-21T12:35:11;43.13;;;19.15;;
79076;SDS011;68477;42.698;23.342;2023-11-21T12:37:40;43.53;;;18.10;;
79076;SDS011;68477;42.698;23.342;2023-11-21T12:40:08;42.22;;;16.52;;
79076;SDS011;68477;42.698;23.342;2023-11-21T12:42:37;37.05;;;18.73;;
79076;SDS011;68477;42.698;23.342;2023-11-21T12:47:34;32.97;;;15.02;;
79076;SDS011;68477;42.698;23.342;2023-11-21T12:50:02;29.52;;;15.20;;
79076;SDS011;68477;42.698;23.342;2023-11-21T12:52:28;31.08;;;14.98;;
79076;SDS011;68477;42.698;23.342;2023-11-21T12:54:53;30.08;;;16.23;;
79076;SDS011;68477;42.698;23.342;2023-11-21T12:57:21;29.58;;;16.15;;
79076;SDS011;68477;42.698;23.342;2023-11-21T12:59:56;28.30;;;15.75;;
79076;SDS011;68477;42.698;23.342;2023-11-21T13:02:25;31.02;;;15.15;;
79076;SDS011;68477;42.698;23.342;2023-11-21T13:04:52;30.23;;;15.85;;
79076;SDS011;68477;42.698;23.342;2023-11-21T13:07:19;29.17;;;13.50;;
79076;SDS011;68477;42.698;23.342;2023-11-21T13:09:45;31.20;;;15.15;;
79076;SDS011;68477;42.698;23.342;2023-11-21T13:12:10;30.73;;;14.32;;
79076;SDS011;68477;42.698;23.342;2023-11-21T13:14:39;30.50;;;14.52;;
79076;SDS011;68477;42.698;23.342;2023-11-21T13:17:05;27.73;;;14.77;;
79076;SDS011;68477;42.698;23.342;2023-11-21T13:19:30;31.30;;;15.52;;
79076;SDS011;68477;42.698;23.342;2023-11-21T13:21:56;25.45;;;13.70;;
79076;SDS011;68477;42.698;23.342;2023-11-21T13:24:21;28.60;;;12.85;;
79076;SDS011;68477;42.698;23.342;2023-11-21T13:26:47;26.10;;;12.05;;
79076;SDS011;68477;42.698;23.342;2023-11-21T13:29:14;24.60;;;12.75;;
79076;SDS011;68477;42.698;23.342;2023-11-21T13:31:41;23.10;;;12.77;;
79076;SDS011;68477;42.698;23.342;2023-11-21T13:34:07;24.95;;;13.27;;
79076;SDS011;68477;42.698;23.342;2023-11-21T13:36:33;28.52;;;13.88;;
79076;SDS011;68477;42.698;23.342;2023-11-21T13:39:00;31.75;;;15.05;;
79076;SDS011;68477;42.698;23.342;2023-11-21T13:41:32;33.85;;;16.30;;
79076;SDS011;68477;42.698;23.342;2023-11-21T13:43:58;30.92;;;15.25;;
79076;SDS011;68477;42.698;23.342;2023-11-21T13:46:40;27.00;;;15.15;;
79076;SDS011;68477;42.698;23.342;2023-11-21T13:49:06;28.33;;;15.80;;
79076;SDS011;68477;42.698;23.342;2023-11-21T13:54:09;33.42;;;16.23;;
79076;SDS011;68477;42.698;23.342;2023-11-21T13:56:37;29.77;;;17.50;;
79076;SDS011;68477;42.698;23.342;2023-11-21T13:59:05;32.33;;;17.20;;
79076;SDS011;68477;42.698;23.342;2023-11-21T14:01:51;30.45;;;16.45;;
79076;SDS011;68477;42.698;23.342;2023-11-21T14:04:42;34.25;;;18.05;;
79076;SDS011;68477;42.698;23.342;2023-11-21T14:07:21;34.45;;;18.00;;
79076;SDS011;68477;42.698;23.342;2023-11-21T14:09:57;31.38;;;18.25;;
79076;SDS011;68477;42.698;23.342;2023-11-21T14:12:23;31.30;;;17.55;;
79076;SDS011;68477;42.698;23.342;2023-11-21T14:14:49;33.05;;;18.90;;
79076;SDS011;68477;42.698;23.342;2023-11-21T14:17:15;35.38;;;18.40;;
79076;SDS011;68477;42.698;23.342;2023-11-21T14:19:41;32.33;;;17.60;;
79076;SDS011;68477;42.698;23.342;2023-11-21T14:22:09;40.88;;;18.88;;
79076;SDS011;68477;42.698;23.342;2023-11-21T14:24:35;30.00;;;17.63;;
79076;SDS011;68477;42.698;23.342;2023-11-21T14:27:01;35.75;;;18.80;;
79076;SDS011;68477;42.698;23.342;2023-11-21T14:29:28;37.20;;;20.67;;
79076;SDS011;68477;42.698;23.342;2023-11-21T14:31:55;40.28;;;20.23;;